Time;durP1;ratioP1;P1;durP2;ratioP2;P2;SDS_P1;SDS_P2;PMS_P1;PMS_P2;Temp;Humidity;BMP_temperature;BMP_pressure;BME280_temperature;BME280_humidity;BME280_pressure;Samples;Min_cycle;Max_cycle;Signal;HPM_P1;HPM_P2
2022/06/04 00:00:36;;;;;;;;;;;17.60;66.30;;;;;;5087650;28;20022;-69
2022/06/04 00:03:03;;;;;;;;;;;17.50;65.90;;;;;;5087901;28;19963;-69
2022/06/04 00:05:31;;;;;;;;;;;17.50;66.40;;;;;;5085993;28;19935;-69
2022/06/04 00:07:58;;;;;;;;;;;17.40;67.50;;;;;;5084291;28;20394;-69
2022/06/04 00:15:56;;;;;;;;;;;17.20;70.10;;;;;;5085738;28;20103;-68
2022/06/04 00:18:23;;;;;;;;;;;17.20;68.90;;;;;;5084987;28;19978;-68
2022/06/04 00:20:50;;;;;;;;;;;17.20;69.40;;;;;;5079010;28;19978;-68
2022/06/04 00:23:18;;;;;;;;;;;17.20;68.60;;;;;;5078234;28;19976;-69
2022/06/04 00:25:49;;;;;;;;;;;17.20;68.50;;;;;;5067859;28;20016;-70
2022/06/04 00:28:17;;;;;;;;;;;17.20;69.20;;;;;;5080347;28;19924;-69
2022/06/04 00:30:44;;;;;;;;;;;17.10;70.60;;;;;;5081840;28;19963;-70
2022/06/04 00:33:11;;;;;;;;;;;17.10;69.90;;;;;;5090573;28;19928;-69
2022/06/04 00:35:38;;;;;;;;;;;17.10;70.50;;;;;;5088355;28;20026;-70
2022/06/04 00:38:06;;;;;;;;;;;17.10;72.60;;;;;;5090125;28;19924;-70
2022/06/04 00:40:36;;;;;;;;;;;17.00;73.30;;;;;;5089141;28;20050;-69
2022/06/04 00:43:04;;;;;;;;;;;17.00;73.90;;;;;;5079653;28;20022;-69
2022/06/04 00:45:58;;;;;;;;;;;17.00;73.30;;;;;;5084874;28;19947;-69
2022/06/04 00:48:25;;;;;;;;;;;16.90;74.10;;;;;;5078048;28;19929;-69
2022/06/04 00:50:52;;;;;;;;;;;16.90;73.40;;;;;;5079214;28;19972;-68
2022/06/04 00:53:18;;;;;;;;;;;16.90;73.60;;;;;;5083951;28;19975;-69
2022/06/04 00:55:48;;;;;;;;;;;16.80;74.40;;;;;;5082490;28;19971;-69
2022/06/04 00:58:27;;;;;;;;;;;16.80;75.90;;;;;;5088820;28;20454;-68
2022/06/04 01:00:55;;;;;;;;;;;16.80;75.00;;;;;;5088765;28;20034;-69
2022/06/04 01:03:32;;;;;;;;;;;16.70;73.90;;;;;;5087193;28;19962;-69
2022/06/04 01:06:04;;;;;;;;;;;16.80;74.40;;;;;;5079564;28;20451;-69
2022/06/04 01:08:45;;;;;;;;;;;16.80;72.70;;;;;;5082977;28;19962;-69
2022/06/04 01:11:18;;;;;;;;;;;16.70;71.80;;;;;;5090530;28;20006;-69
2022/06/04 01:14:04;;;;;;;;;;;16.70;72.40;;;;;;5089101;28;19971;-70
2022/06/04 01:16:34;;;;;;;;;;;16.70;71.90;;;;;;5084638;28;20022;-70
2022/06/04 01:19:06;;;;;;;;;;;16.70;71.90;;;;;;5088705;28;19924;-70
2022/06/04 01:21:39;;;;;;;;;;;16.70;72.30;;;;;;5087167;28;19959;-69
2022/06/04 01:24:33;;;;;;;;;;;16.70;71.50;;;;;;5085858;28;20397;-68
2022/06/04 01:27:08;;;;;;;;;;;16.60;70.60;;;;;;5040446;28;19932;-68
2022/06/04 01:29:38;;;;;;;;;;;16.60;70.70;;;;;;5080099;28;20413;-68
2022/06/04 01:32:08;;;;;;;;;;;16.60;70.30;;;;;;5090427;28;20403;-68
2022/06/04 01:34:37;;;;;;;;;;;16.50;71.30;;;;;;5087845;28;20019;-69
2022/06/04 01:37:06;;;;;;;;;;;16.50;69.70;;;;;;5076149;28;19925;-69
2022/06/04 01:42:18;;;;;;;;;;;16.40;71.70;;;;;;5085218;28;20018;-68
2022/06/04 01:44:46;;;;;;;;;;;16.40;71.10;;;;;;5081981;28;19990;-69
2022/06/04 01:47:13;;;;;;;;;;;16.40;71.10;;;;;;5085400;28;20301;-68
2022/06/04 01:49:43;;;;;;;;;;;16.40;72.50;;;;;;5088420;28;19967;-69
2022/06/04 01:52:11;;;;;;;;;;;16.30;71.60;;;;;;5080094;28;19924;-69
2022/06/04 01:54:39;;;;;;;;;;;16.30;71.10;;;;;;5087807;28;19959;-70
2022/06/04 01:57:08;;;;;;;;;;;16.30;72.20;;;;;;5087854;28;19930;-69
2022/06/04 01:59:40;;;;;;;;;;;16.30;71.80;;;;;;5089781;28;19962;-68
2022/06/04 02:02:09;;;;;;;;;;;16.20;71.70;;;;;;5079906;28;19925;-69
2022/06/04 02:04:37;;;;;;;;;;;16.20;72.10;;;;;;5084189;28;19928;-68
2022/06/04 02:09:53;;;;;;;;;;;16.10;72.50;;;;;;5088352;28;19998;-69
2022/06/04 02:12:20;;;;;;;;;;;16.10;72.60;;;;;;5086443;28;20001;-69
2022/06/04 02:14:48;;;;;;;;;;;16.10;72.80;;;;;;5083868;28;19935;-69
2022/06/04 02:17:19;;;;;;;;;;;16.00;72.50;;;;;;5085941;28;20363;-69
2022/06/04 02:19:46;;;;;;;;;;;16.00;72.10;;;;;;5085481;28;19974;-69
2022/06/04 02:22:12;;;;;;;;;;;16.00;73.90;;;;;;5079371;28;20007;-69
2022/06/04 02:24:40;;;;;;;;;;;16.00;73.50;;;;;;5089466;28;19930;-69
2022/06/04 02:27:06;;;;;;;;;;;16.00;72.90;;;;;;5076947;28;19925;-68
2022/06/04 02:29:34;;;;;;;;;;;15.90;73.10;;;;;;5083918;28;20012;-68
2022/06/04 02:32:05;;;;;;;;;;;15.90;72.70;;;;;;5086327;28;19924;-68
2022/06/04 02:34:35;;;;;;;;;;;15.80;73.10;;;;;;5082256;28;20356;-68
2022/06/04 02:37:05;;;;;;;;;;;15.80;73.80;;;;;;5086760;28;19936;-69
2022/06/04 02:39:34;;;;;;;;;;;15.70;74.10;;;;;;5085251;28;19963;-68
2022/06/04 02:42:03;;;;;;;;;;;15.70;73.00;;;;;;5083341;28;20360;-68
2022/06/04 02:44:30;;;;;;;;;;;15.70;73.20;;;;;;5087782;28;20015;-68
2022/06/04 02:47:01;;;;;;;;;;;15.60;74.50;;;;;;5087239;28;19955;-68
2022/06/04 02:49:35;;;;;;;;;;;15.60;74.60;;;;;;5083939;28;19970;-71
2022/06/04 02:52:03;;;;;;;;;;;15.50;75.00;;;;;;5085953;28;19924;-68
2022/06/04 02:54:31;;;;;;;;;;;15.50;74.80;;;;;;5083917;28;20391;-68
2022/06/04 02:56:59;;;;;;;;;;;15.50;74.40;;;;;;5088617;28;20332;-68
2022/06/04 02:59:27;;;;;;;;;;;15.50;74.10;;;;;;5088636;28;20377;-67
2022/06/04 03:01:57;;;;;;;;;;;15.40;74.40;;;;;;5077054;28;19936;-68
2022/06/04 03:04:23;;;;;;;;;;;15.40;74.50;;;;;;5089550;28;19931;-68
2022/06/04 03:06:51;;;;;;;;;;;15.30;75.70;;;;;;5085667;28;19955;-70
2022/06/04 03:09:20;;;;;;;;;;;15.30;74.90;;;;;;5078412;28;19924;-70
2022/06/04 03:11:47;;;;;;;;;;;15.30;75.50;;;;;;5084690;28;20008;-70
2022/06/04 03:14:15;;;;;;;;;;;15.20;75.50;;;;;;5081701;28;20045;-68
2022/06/04 03:16:43;;;;;;;;;;;15.20;75.00;;;;;;5075328;28;19924;-70
2022/06/04 03:19:10;;;;;;;;;;;15.20;75.10;;;;;;5086249;28;19928;-71
2022/06/04 03:21:37;;;;;;;;;;;15.20;76.60;;;;;;5083766;28;19993;-68
2022/06/04 03:24:06;;;;;;;;;;;15.10;75.70;;;;;;5088069;28;19951;-68
2022/06/04 03:26:33;;;;;;;;;;;15.10;75.30;;;;;;5081203;28;20389;-68
2022/06/04 03:29:00;;;;;;;;;;;15.10;76.90;;;;;;5087738;28;20010;-68
2022/06/04 03:31:27;;;;;;;;;;;15.00;75.20;;;;;;5088611;28;20015;-68
2022/06/04 03:33:54;;;;;;;;;;;15.00;75.10;;;;;;5082277;28;19931;-70
2022/06/04 03:36:21;;;;;;;;;;;15.00;76.00;;;;;;5081139;28;19990;-70
2022/06/04 03:38:48;;;;;;;;;;;15.00;76.20;;;;;;5081384;28;19924;-68
2022/06/04 03:41:16;;;;;;;;;;;14.90;75.70;;;;;;5078622;28;20003;-70
2022/06/04 03:43:46;;;;;;;;;;;14.80;74.60;;;;;;5077078;28;20381;-70
2022/06/04 03:46:13;;;;;;;;;;;14.80;75.80;;;;;;5088794;28;19925;-71
2022/06/04 03:48:40;;;;;;;;;;;14.80;75.90;;;;;;5087064;28;19943;-70
2022/06/04 03:51:07;;;;;;;;;;;14.80;76.70;;;;;;5084570;28;19986;-70
2022/06/04 03:53:33;;;;;;;;;;;14.70;76.60;;;;;;5081909;28;22107;-70
2022/06/04 03:56:00;;;;;;;;;;;14.70;77.60;;;;;;5090198;28;20312;-70
2022/06/04 03:58:30;;;;;;;;;;;14.70;78.00;;;;;;5088281;28;20387;-70
2022/06/04 04:00:57;;;;;;;;;;;14.70;77.70;;;;;;5085444;28;19967;-70
2022/06/04 04:03:24;;;;;;;;;;;14.70;77.00;;;;;;5087464;28;20015;-70
2022/06/04 04:05:52;;;;;;;;;;;14.70;76.90;;;;;;5082621;28;19959;-70
2022/06/04 04:08:20;;;;;;;;;;;14.60;76.80;;;;;;5078920;28;20025;-70
2022/06/04 04:10:47;;;;;;;;;;;14.60;77.20;;;;;;5091588;28;20015;-70
2022/06/04 04:13:14;;;;;;;;;;;14.60;77.00;;;;;;5080957;28;20134;-70
2022/06/04 04:15:42;;;;;;;;;;;14.60;78.00;;;;;;5082920;28;19933;-70
2022/06/04 04:18:09;;;;;;;;;;;14.60;78.40;;;;;;5092646;28;20257;-70
2022/06/04 04:20:37;;;;;;;;;;;14.50;78.70;;;;;;5090390;28;20018;-70
2022/06/04 04:23:06;;;;;;;;;;;14.50;79.30;;;;;;5078034;28;20609;-70
2022/06/04 04:25:33;;;;;;;;;;;14.40;79.20;;;;;;5089977;28;20379;-70
2022/06/04 04:28:00;;;;;;;;;;;14.40;79.20;;;;;;5080720;28;19971;-70
2022/06/04 04:30:28;;;;;;;;;;;14.40;79.30;;;;;;5089267;28;19971;-69
2022/06/04 04:32:57;;;;;;;;;;;14.40;80.40;;;;;;5076153;28;20422;-69
2022/06/04 04:35:25;;;;;;;;;;;14.40;81.00;;;;;;5085464;28;20674;-68
2022/06/04 04:37:53;;;;;;;;;;;14.40;80.40;;;;;;5090992;28;19928;-70
2022/06/04 04:40:20;;;;;;;;;;;14.30;80.70;;;;;;5086585;28;20007;-70
2022/06/04 04:42:48;;;;;;;;;;;14.30;80.80;;;;;;5081206;28;20028;-70
2022/06/04 04:45:15;;;;;;;;;;;14.30;82.30;;;;;;5087936;28;20373;-70
2022/06/04 04:47:43;;;;;;;;;;;14.30;82.80;;;;;;5090756;28;19986;-70
2022/06/04 04:50:15;;;;;;;;;;;14.20;83.10;;;;;;5091148;28;19979;-70
2022/06/04 04:52:41;;;;;;;;;;;14.20;83.80;;;;;;5080145;28;20011;-70
2022/06/04 04:55:08;;;;;;;;;;;14.10;84.20;;;;;;5081429;28;20011;-70
2022/06/04 04:57:35;;;;;;;;;;;14.20;85.30;;;;;;5091759;28;20019;-70
2022/06/04 05:00:02;;;;;;;;;;;14.20;84.60;;;;;;5087918;28;20018;-70
2022/06/04 05:02:29;;;;;;;;;;;14.20;84.70;;;;;;5089025;28;19945;-70
2022/06/04 05:04:55;;;;;;;;;;;14.10;85.10;;;;;;5091258;28;20449;-70
2022/06/04 05:07:23;;;;;;;;;;;14.20;85.90;;;;;;5087638;28;20185;-70
2022/06/04 05:09:50;;;;;;;;;;;14.20;85.80;;;;;;5084214;28;19975;-70
2022/06/04 05:12:17;;;;;;;;;;;14.20;86.60;;;;;;5088628;28;20453;-70
2022/06/04 05:14:43;;;;;;;;;;;14.20;87.40;;;;;;5080307;28;19932;-70
2022/06/04 05:17:10;;;;;;;;;;;14.20;88.10;;;;;;5087596;28;19924;-70
2022/06/04 05:19:37;;;;;;;;;;;14.30;88.30;;;;;;5085973;28;20021;-70
2022/06/04 05:22:04;;;;;;;;;;;14.20;88.20;;;;;;5089944;28;19958;-70
2022/06/04 05:24:33;;;;;;;;;;;14.30;89.10;;;;;;5091246;28;19966;-70
2022/06/04 05:27:00;;;;;;;;;;;14.30;87.50;;;;;;5087184;28;19945;-70
2022/06/04 05:29:28;;;;;;;;;;;14.20;88.60;;;;;;5089130;28;19932;-70
2022/06/04 05:31:56;;;;;;;;;;;14.20;89.10;;;;;;5090857;28;19924;-72
2022/06/04 05:34:23;;;;;;;;;;;14.20;88.80;;;;;;5090987;28;20073;-72
2022/06/04 05:36:50;;;;;;;;;;;14.30;90.10;;;;;;5094273;28;19974;-73
2022/06/04 05:39:18;;;;;;;;;;;14.30;90.20;;;;;;5090499;28;19924;-71
2022/06/04 05:41:46;;;;;;;;;;;14.20;89.40;;;;;;5088165;28;19962;-70
2022/06/04 05:44:13;;;;;;;;;;;14.30;89.40;;;;;;5082037;28;19936;-70
2022/06/04 05:46:42;;;;;;;;;;;14.30;90.40;;;;;;5087484;28;19928;-70
2022/06/04 05:49:08;;;;;;;;;;;14.20;89.70;;;;;;5088978;28;20326;-70
2022/06/04 05:51:35;;;;;;;;;;;14.30;90.10;;;;;;5080886;28;19928;-70
2022/06/04 05:54:02;;;;;;;;;;;14.30;91.00;;;;;;5074426;28;19931;-70
2022/06/04 05:56:30;;;;;;;;;;;14.30;90.50;;;;;;5075553;28;20010;-70
2022/06/04 05:58:59;;;;;;;;;;;14.30;90.80;;;;;;5078263;28;20478;-69
2022/06/04 06:01:27;;;;;;;;;;;14.30;90.50;;;;;;5076917;28;19924;-69
2022/06/04 06:03:54;;;;;;;;;;;14.40;90.70;;;;;;5076989;28;19924;-69
2022/06/04 06:06:21;;;;;;;;;;;14.30;90.40;;;;;;5074875;28;20024;-70
2022/06/04 06:08:48;;;;;;;;;;;14.30;90.60;;;;;;5075463;28;19947;-65
2022/06/04 06:11:16;;;;;;;;;;;14.40;91.10;;;;;;5074273;28;19932;-65
2022/06/04 06:13:43;;;;;;;;;;;14.50;90.70;;;;;;5071444;28;20025;-68
2022/06/04 06:16:12;;;;;;;;;;;14.50;91.50;;;;;;5071940;28;20315;-68
2022/06/04 06:18:39;;;;;;;;;;;14.40;91.00;;;;;;5074133;28;20474;-68
2022/06/04 06:21:06;;;;;;;;;;;14.40;90.80;;;;;;5080265;28;20362;-68
2022/06/04 06:23:33;;;;;;;;;;;14.40;90.80;;;;;;5076280;28;19935;-68
2022/06/04 06:26:04;;;;;;;;;;;14.40;91.40;;;;;;5082337;28;19924;-68
2022/06/04 06:28:31;;;;;;;;;;;14.40;90.70;;;;;;5076504;28;19932;-68
2022/06/04 06:30:57;;;;;;;;;;;14.50;91.60;;;;;;5069157;28;19968;-68
2022/06/04 06:33:25;;;;;;;;;;;14.50;91.10;;;;;;5074554;28;20415;-68
2022/06/04 06:35:55;;;;;;;;;;;14.50;91.30;;;;;;5075033;28;19986;-68
2022/06/04 06:38:22;;;;;;;;;;;14.50;91.60;;;;;;5073179;28;19965;-69
2022/06/04 06:40:48;;;;;;;;;;;14.50;91.60;;;;;;5075249;28;20303;-69
2022/06/04 06:43:15;;;;;;;;;;;14.50;91.40;;;;;;5078228;28;19957;-69
2022/06/04 06:45:42;;;;;;;;;;;14.40;91.40;;;;;;5074325;28;19950;-69
2022/06/04 06:48:09;;;;;;;;;;;14.50;91.30;;;;;;5077800;28;19924;-71
2022/06/04 06:50:38;;;;;;;;;;;14.50;91.20;;;;;;5080918;28;20463;-70
2022/06/04 06:53:05;;;;;;;;;;;14.40;91.60;;;;;;5073039;28;19924;-70
2022/06/04 06:55:32;;;;;;;;;;;14.50;91.70;;;;;;5076679;28;19955;-70
2022/06/04 06:57:58;;;;;;;;;;;14.50;92.00;;;;;;5079701;28;20597;-69
2022/06/04 07:00:25;;;;;;;;;;;14.50;92.10;;;;;;5074321;28;20023;-69
2022/06/04 07:02:52;;;;;;;;;;;14.60;92.30;;;;;;5070893;28;19998;-69
2022/06/04 07:05:19;;;;;;;;;;;14.60;92.00;;;;;;5075728;28;20007;-69
2022/06/04 07:07:47;;;;;;;;;;;14.70;92.20;;;;;;5076664;28;19975;-69
2022/06/04 07:10:14;;;;;;;;;;;14.60;92.40;;;;;;5079458;28;20011;-69
2022/06/04 07:12:42;;;;;;;;;;;14.60;91.90;;;;;;5074190;28;19924;-69
2022/06/04 07:15:10;;;;;;;;;;;14.80;92.10;;;;;;5078092;28;19932;-69
2022/06/04 07:17:36;;;;;;;;;;;15.10;91.80;;;;;;5075179;28;20010;-71
2022/06/04 07:20:03;;;;;;;;;;;15.00;91.50;;;;;;5077314;28;20294;-69
2022/06/04 07:22:30;;;;;;;;;;;15.10;91.20;;;;;;5077831;28;19987;-69
2022/06/04 07:24:59;;;;;;;;;;;15.60;90.80;;;;;;5075716;28;20364;-69
2022/06/04 07:27:26;;;;;;;;;;;16.10;89.00;;;;;;5072470;28;19924;-69
2022/06/04 07:29:52;;;;;;;;;;;16.10;86.80;;;;;;5081875;28;19990;-69
2022/06/04 07:32:19;;;;;;;;;;;16.60;84.80;;;;;;5082810;28;19935;-69
2022/06/04 07:34:46;;;;;;;;;;;16.70;82.30;;;;;;5081641;28;20374;-67
2022/06/04 07:37:13;;;;;;;;;;;16.70;82.30;;;;;;5082340;28;20035;-69
2022/06/04 07:39:40;;;;;;;;;;;17.60;79.30;;;;;;5076500;28;20003;-67
2022/06/04 07:42:08;;;;;;;;;;;17.30;78.30;;;;;;5087133;28;20010;-67
2022/06/04 07:44:35;;;;;;;;;;;17.00;79.20;;;;;;5085070;28;20010;-68
2022/06/04 07:47:01;;;;;;;;;;;16.80;80.60;;;;;;5092433;28;20011;-68
2022/06/04 07:49:28;;;;;;;;;;;17.10;81.20;;;;;;5079320;28;19967;-67
2022/06/04 07:51:55;;;;;;;;;;;16.60;79.80;;;;;;5094057;28;19931;-67
2022/06/04 07:54:22;;;;;;;;;;;17.10;82.00;;;;;;5082028;28;19928;-68
2022/06/04 07:56:50;;;;;;;;;;;17.30;79.10;;;;;;5095629;28;19924;-67
2022/06/04 07:59:18;;;;;;;;;;;17.00;80.30;;;;;;5081670;28;19955;-67
2022/06/04 08:01:46;;;;;;;;;;;17.00;79.20;;;;;;5074464;28;19979;-67
2022/06/04 08:04:13;;;;;;;;;;;17.10;79.90;;;;;;5079724;28;19924;-67
2022/06/04 08:06:40;;;;;;;;;;;17.10;78.40;;;;;;5094889;28;19946;-67
2022/06/04 08:09:06;;;;;;;;;;;17.20;79.50;;;;;;5076866;28;19925;-70
2022/06/04 08:11:35;;;;;;;;;;;17.00;79.10;;;;;;5092047;28;20387;-67
2022/06/04 08:14:05;;;;;;;;;;;17.60;79.10;;;;;;5078984;28;19975;-67
2022/06/04 08:16:34;;;;;;;;;;;18.00;77.50;;;;;;5076625;28;19925;-67
2022/06/04 08:19:00;;;;;;;;;;;18.40;76.10;;;;;;5085147;28;19924;-67
2022/06/04 08:21:27;;;;;;;;;;;19.40;69.80;;;;;;5091308;28;20017;-68
2022/06/04 08:23:54;;;;;;;;;;;19.00;70.80;;;;;;5089132;28;20011;-67
2022/06/04 08:26:20;;;;;;;;;;;18.30;71.70;;;;;;5074310;28;19930;-68
2022/06/04 08:28:47;;;;;;;;;;;18.30;72.10;;;;;;5085499;28;19924;-67
2022/06/04 08:31:15;;;;;;;;;;;18.30;70.10;;;;;;5093765;28;20382;-67
2022/06/04 08:33:43;;;;;;;;;;;18.60;73.70;;;;;;5081870;28;20015;-67
2022/06/04 08:36:12;;;;;;;;;;;18.80;71.50;;;;;;5090866;28;19935;-67
2022/06/04 08:38:38;;;;;;;;;;;19.10;66.40;;;;;;5081013;28;20370;-68
2022/06/04 08:41:07;;;;;;;;;;;18.60;69.90;;;;;;5087202;28;19934;-66
2022/06/04 08:43:34;;;;;;;;;;;18.60;70.40;;;;;;5077503;28;19924;-67
2022/06/04 08:46:02;;;;;;;;;;;18.80;70.10;;;;;;5092307;28;19924;-67
2022/06/04 08:48:31;;;;;;;;;;;19.00;68.40;;;;;;5081554;28;19982;-67
2022/06/04 08:50:59;;;;;;;;;;;18.50;69.30;;;;;;5078990;28;19993;-67
2022/06/04 08:53:27;;;;;;;;;;;19.20;69.40;;;;;;5088564;28;20052;-67
2022/06/04 08:58:50;;;;;;;;;;;19.30;65.80;;;;;;5081528;28;20093;-67
2022/06/04 09:01:19;;;;;;;;;;;18.80;70.60;;;;;;5079410;28;19925;-67
2022/06/04 09:03:53;;;;;;;;;;;18.90;71.60;;;;;;5077132;28;20015;-67
2022/06/04 09:06:27;;;;;;;;;;;19.20;68.00;;;;;;5078336;28;19925;-66
2022/06/04 09:08:58;;;;;;;;;;;19.50;66.00;;;;;;5083365;28;20297;-66
2022/06/04 09:11:28;;;;;;;;;;;19.80;67.40;;;;;;5078082;28;19931;-66
2022/06/04 09:14:13;;;;;;;;;;;18.80;67.60;;;;;;5074946;28;19934;-66
2022/06/04 09:16:41;;;;;;;;;;;18.90;69.60;;;;;;5060347;28;19939;-67
2022/06/04 09:19:14;;;;;;;;;;;19.00;69.50;;;;;;5076825;28;19924;-68
2022/06/04 09:21:42;;;;;;;;;;;19.00;70.20;;;;;;5088150;28;20475;-67
2022/06/04 09:24:09;;;;;;;;;;;18.80;69.60;;;;;;5082569;28;20019;-67
2022/06/04 09:26:41;;;;;;;;;;;19.10;70.70;;;;;;5081782;28;19971;-66
2022/06/04 09:29:17;;;;;;;;;;;18.70;70.70;;;;;;5089711;28;19963;-67
2022/06/04 09:31:49;;;;;;;;;;;19.50;70.80;;;;;;5084860;28;19925;-66
2022/06/04 09:34:19;;;;;;;;;;;19.50;68.20;;;;;;5078042;28;19932;-68
2022/06/04 09:36:47;;;;;;;;;;;19.90;67.80;;;;;;5074995;28;19924;-67
2022/06/04 09:39:21;;;;;;;;;;;19.30;68.50;;;;;;5076745;28;19925;-66
2022/06/04 09:41:50;;;;;;;;;;;19.30;68.80;;;;;;5089042;28;20386;-68
2022/06/04 09:44:17;;;;;;;;;;;19.40;67.70;;;;;;5086061;28;20302;-67
2022/06/04 09:46:45;;;;;;;;;;;19.40;69.20;;;;;;5080517;28;20383;-67
2022/06/04 09:49:21;;;;;;;;;;;19.50;68.40;;;;;;5077674;28;19924;-66
2022/06/04 09:51:49;;;;;;;;;;;19.80;66.40;;;;;;5080406;28;20309;-67
2022/06/04 09:54:24;;;;;;;;;;;19.90;67.00;;;;;;5091648;28;19979;-67
2022/06/04 09:56:53;;;;;;;;;;;19.70;68.50;;;;;;5079301;28;19925;-67
2022/06/04 09:59:21;;;;;;;;;;;18.90;68.90;;;;;;5079803;28;19924;-67
2022/06/04 10:01:58;;;;;;;;;;;18.90;72.40;;;;;;5083355;28;19971;-67
2022/06/04 10:04:36;;;;;;;;;;;18.80;74.30;;;;;;5081959;28;19959;-67
2022/06/04 10:07:09;;;;;;;;;;;19.00;72.90;;;;;;5072293;28;19924;-67
2022/06/04 10:13:42;;;;;;;;;;;19.20;73.20;;;;;;5087228;28;19946;-67
2022/06/04 10:15:15;;;;;;;;;;;19.30;73.20;;;;;;5089032;28;19924;-66
2022/06/04 10:17:42;;;;;;;;;;;19.40;70.90;;;;;;5084276;28;19924;-67
2022/06/04 10:20:19;;;;;;;;;;;19.40;72.00;;;;;;5074266;28;19924;-67
2022/06/04 10:22:49;;;;;;;;;;;19.60;72.30;;;;;;5072523;28;20180;-67
2022/06/04 10:25:21;;;;;;;;;;;19.50;73.20;;;;;;5087590;28;19931;-67
2022/06/04 10:27:52;;;;;;;;;;;19.20;73.30;;;;;;5074789;28;19931;-67
2022/06/04 10:30:24;;;;;;;;;;;19.40;72.60;;;;;;5075055;28;19924;-67
2022/06/04 10:32:54;;;;;;;;;;;19.40;72.50;;;;;;5072449;28;19928;-67
2022/06/04 10:35:26;;;;;;;;;;;19.30;73.50;;;;;;5078919;28;19924;-67
2022/06/04 10:38:01;;;;;;;;;;;19.20;74.10;;;;;;5072915;28;20021;-68
2022/06/04 10:40:40;;;;;;;;;;;19.50;74.00;;;;;;5088398;28;19924;-67
2022/06/04 10:43:14;;;;;;;;;;;19.30;74.30;;;;;;5078540;28;20759;-67
2022/06/04 10:45:43;;;;;;;;;;;19.70;75.30;;;;;;5077008;28;19974;-68
2022/06/04 10:48:11;;;;;;;;;;;19.60;74.20;;;;;;5077503;28;19971;-67
2022/06/04 10:53:34;;;;;;;;;;;19.10;72.10;;;;;;5065061;28;19930;-67
2022/06/04 10:56:06;;;;;;;;;;;18.80;74.00;;;;;;5088188;28;20378;-68
2022/06/04 10:58:36;;;;;;;;;;;19.10;74.60;;;;;;5081423;28;19928;-67
2022/06/04 11:01:06;;;;;;;;;;;19.10;74.90;;;;;;5082267;28;19924;-67
2022/06/04 11:03:36;;;;;;;;;;;19.20;74.70;;;;;;5077543;28;20357;-68
2022/06/04 11:06:05;;;;;;;;;;;19.60;72.70;;;;;;5077346;28;19977;-67
2022/06/04 11:08:36;;;;;;;;;;;19.20;73.20;;;;;;5073965;28;19971;-67
2022/06/04 11:11:05;;;;;;;;;;;19.70;72.80;;;;;;5074194;28;20018;-67
2022/06/04 11:13:33;;;;;;;;;;;19.60;71.90;;;;;;5077484;28;19925;-67
2022/06/04 11:16:04;;;;;;;;;;;20.10;72.20;;;;;;5091661;28;19963;-67
2022/06/04 11:18:33;;;;;;;;;;;20.50;70.80;;;;;;5078500;28;20019;-67
2022/06/04 11:21:03;;;;;;;;;;;20.10;70.00;;;;;;5091929;28;20282;-67
2022/06/04 11:23:37;;;;;;;;;;;19.90;71.60;;;;;;5088263;28;19967;-67
2022/06/04 11:26:05;;;;;;;;;;;20.00;70.90;;;;;;5091297;28;20416;-67
2022/06/04 11:28:33;;;;;;;;;;;19.80;69.50;;;;;;5079996;28;19956;-67
2022/06/04 11:31:09;;;;;;;;;;;20.00;73.90;;;;;;5078713;28;19960;-67
2022/06/04 11:33:41;;;;;;;;;;;20.40;72.10;;;;;;5082047;28;20371;-67
2022/06/04 11:36:15;;;;;;;;;;;20.40;70.00;;;;;;5076260;28;20372;-67
2022/06/04 11:38:52;;;;;;;;;;;20.40;70.00;;;;;;5072273;28;20027;-67
2022/06/04 11:41:24;;;;;;;;;;;20.40;68.60;;;;;;5084502;28;20007;-67
2022/06/04 11:44:03;;;;;;;;;;;20.40;72.20;;;;;;5078652;28;20409;-67
2022/06/04 11:46:35;;;;;;;;;;;20.80;68.70;;;;;;5075302;28;19928;-68
2022/06/04 11:49:07;;;;;;;;;;;20.50;69.20;;;;;;5075974;28;19925;-67
2022/06/04 11:51:56;;;;;;;;;;;20.80;69.70;;;;;;5074369;28;20722;-68
2022/06/04 11:54:29;;;;;;;;;;;20.50;67.80;;;;;;5071765;28;19924;-67
2022/06/04 11:57:01;;;;;;;;;;;20.70;69.30;;;;;;5072412;28;19931;-67
2022/06/04 11:59:34;;;;;;;;;;;21.00;65.50;;;;;;5084068;28;19999;-66
2022/06/04 12:02:06;;;;;;;;;;;21.20;67.40;;;;;;5071015;28;19928;-67
2022/06/04 12:04:35;;;;;;;;;;;21.20;67.40;;;;;;5082249;28;20429;-68
2022/06/04 12:07:07;;;;;;;;;;;21.00;68.20;;;;;;5088436;28;20253;-67
2022/06/04 12:09:41;;;;;;;;;;;21.40;65.40;;;;;;5080196;28;20347;-67
2022/06/04 12:12:11;;;;;;;;;;;21.60;65.90;;;;;;5084298;28;19934;-67
2022/06/04 12:14:41;;;;;;;;;;;21.30;64.20;;;;;;5081176;28;19930;-68
2022/06/04 12:17:10;;;;;;;;;;;21.30;66.20;;;;;;5072344;28;19964;-68
2022/06/04 12:25:10;;;;;;;;;;;21.80;66.40;;;;;;5080708;28;19939;-68
2022/06/04 12:27:53;;;;;;;;;;;22.10;64.70;;;;;;5083174;28;19939;-68
2022/06/04 12:30:38;;;;;;;;;;;22.10;63.50;;;;;;5084874;28;19924;-68
2022/06/04 12:33:08;;;;;;;;;;;22.00;63.80;;;;;;5090310;28;19932;-68
2022/06/04 12:35:35;;;;;;;;;;;21.80;64.30;;;;;;5092538;28;19982;-68
2022/06/04 12:38:12;;;;;;;;;;;21.90;62.40;;;;;;5080772;28;20020;-68
2022/06/04 12:40:41;;;;;;;;;;;22.30;63.40;;;;;;5071812;28;19924;-68
2022/06/04 12:43:22;;;;;;;;;;;22.40;59.70;;;;;;5072033;28;19956;-68
2022/06/04 12:45:50;;;;;;;;;;;22.30;60.50;;;;;;5090083;28;20375;-67
2022/06/04 12:48:21;;;;;;;;;;;22.00;60.70;;;;;;5089055;28;19928;-67
2022/06/04 12:50:49;;;;;;;;;;;22.40;64.00;;;;;;5079601;28;19928;-67
2022/06/04 12:53:18;;;;;;;;;;;22.70;60.50;;;;;;5082184;28;20006;-67
2022/06/04 12:55:48;;;;;;;;;;;22.70;59.20;;;;;;5085217;28;19968;-67
2022/06/04 12:58:29;;;;;;;;;;;22.80;60.00;;;;;;5081148;28;20011;-67
2022/06/04 13:00:57;;;;;;;;;;;22.70;60.20;;;;;;5087431;28;19932;-68
2022/06/04 13:03:41;;;;;;;;;;;22.90;59.90;;;;;;5079873;28;19971;-68
2022/06/04 13:06:23;;;;;;;;;;;22.60;59.30;;;;;;5086822;28;19931;-68
2022/06/04 13:08:57;;;;;;;;;;;22.80;58.80;;;;;;5073327;28;20343;-67
2022/06/04 13:11:38;;;;;;;;;;;22.60;58.90;;;;;;5082699;28;19928;-67
2022/06/04 13:14:08;;;;;;;;;;;22.80;59.20;;;;;;5086343;28;19924;-68
2022/06/04 13:16:46;;;;;;;;;;;23.20;58.40;;;;;;5092208;28;19978;-68
2022/06/04 13:19:23;;;;;;;;;;;22.90;58.00;;;;;;5077416;28;19924;-67
2022/06/04 13:21:51;;;;;;;;;;;22.90;58.50;;;;;;5073690;28;19971;-68
2022/06/04 13:24:21;;;;;;;;;;;23.30;58.00;;;;;;5090892;28;20359;-68
2022/06/04 13:26:52;;;;;;;;;;;23.20;57.60;;;;;;5075893;28;19924;-68
2022/06/04 13:29:24;;;;;;;;;;;23.60;59.20;;;;;;5072949;28;20025;-68
2022/06/04 13:31:51;;;;;;;;;;;23.20;56.30;;;;;;5083828;28;20018;-68
2022/06/04 13:34:20;;;;;;;;;;;23.20;56.60;;;;;;5085580;28;19924;-68
2022/06/04 13:36:48;;;;;;;;;;;23.40;56.40;;;;;;5088932;28;19931;-68
2022/06/04 13:39:16;;;;;;;;;;;23.40;56.80;;;;;;5078136;28;19924;-67
2022/06/04 13:42:06;;;;;;;;;;;23.30;56.20;;;;;;5091075;28;19924;-68
2022/06/04 13:44:36;;;;;;;;;;;23.20;56.20;;;;;;5074954;28;20034;-67
2022/06/04 13:47:07;;;;;;;;;;;23.30;55.30;;;;;;5073155;28;20394;-68
2022/06/04 13:49:35;;;;;;;;;;;23.30;57.40;;;;;;5081610;28;19924;-67
2022/06/04 13:52:03;;;;;;;;;;;23.60;53.60;;;;;;5078353;28;19979;-67
2022/06/04 13:54:31;;;;;;;;;;;23.50;55.20;;;;;;5080488;28;19963;-67
2022/06/04 13:56:59;;;;;;;;;;;23.70;54.20;;;;;;5081228;28;20017;-68
2022/06/04 13:59:29;;;;;;;;;;;23.60;53.20;;;;;;5068253;28;19982;-68
2022/06/04 14:01:58;;;;;;;;;;;23.50;54.70;;;;;;5077564;28;20395;-68
2022/06/04 14:07:11;;;;;;;;;;;24.20;54.60;;;;;;5072682;28;19932;-68
2022/06/04 14:09:38;;;;;;;;;;;23.80;53.40;;;;;;5074373;28;19928;-68
2022/06/04 14:12:06;;;;;;;;;;;23.60;53.40;;;;;;5072654;28;20007;-67
2022/06/04 14:14:56;;;;;;;;;;;23.50;53.30;;;;;;5076820;28;20011;-65
2022/06/04 14:17:32;;;;;;;;;;;23.80;53.20;;;;;;5067475;28;20240;-65
2022/06/04 14:20:05;;;;;;;;;;;24.10;53.30;;;;;;5074708;28;19928;-67
2022/06/04 14:22:36;;;;;;;;;;;24.40;52.10;;;;;;5081923;28;19946;-66
2022/06/04 14:25:15;;;;;;;;;;;24.10;52.40;;;;;;5090553;28;19928;-66
2022/06/04 14:27:46;;;;;;;;;;;24.30;52.10;;;;;;5074251;28;20181;-67
2022/06/04 14:30:15;;;;;;;;;;;24.40;51.80;;;;;;5070140;28;19936;-66
2022/06/04 14:32:46;;;;;;;;;;;24.30;50.20;;;;;;5086343;28;20010;-67
2022/06/04 14:35:15;;;;;;;;;;;24.10;51.40;;;;;;5080231;28;20387;-67
2022/06/04 14:37:43;;;;;;;;;;;24.60;51.60;;;;;;5079033;28;19931;-67
2022/06/04 14:40:13;;;;;;;;;;;24.30;50.90;;;;;;5079190;28;20681;-70
2022/06/04 14:42:55;;;;;;;;;;;24.30;51.70;;;;;;5085056;28;19935;-67
2022/06/04 14:45:27;;;;;;;;;;;24.40;51.60;;;;;;5081667;28;20403;-67
2022/06/04 14:48:12;;;;;;;;;;;24.40;49.20;;;;;;5079775;28;20015;-67
2022/06/04 14:50:45;;;;;;;;;;;24.50;50.20;;;;;;5075241;28;20343;-67
2022/06/04 14:53:12;;;;;;;;;;;24.70;49.80;;;;;;5085812;28;19928;-68
2022/06/04 14:55:49;;;;;;;;;;;24.30;49.60;;;;;;5087703;28;20018;-68
2022/06/04 14:58:27;;;;;;;;;;;24.60;50.10;;;;;;5086001;28;19959;-69